Portada
METAR-TAF:

METAR-TAF

Aeroports :

Gladstone, Austràlia

latitud: 23-52-11S, longitud: 151-13-22E, altitud: 18 m

Observació

L'informe es va fer fa 42 minuts, a les 16:00 UTC
Vent 1 kt del Est/Nord-Est
Temperatura 24°C
Humitat 74%
Pressió 1010 hPa
Visibilitat 10 km o més

METAR: YGLA 121600Z AUTO 07001KT 9999 // NCD 24/19 Q1010 RF00.0/000.2

Hora: 02:42 (16:42 UTC)

Pronòstic

L'informe es va fer fa 5 hores i 16 minuts, a les 11:26 UTC
Pronòstic vàlid del 12 a les 12 UTC al 12 a les 24 UTC
Vent 6 kt del Est
Visibilitat 10 km o més
Núvols disperses a una alçada de 2000 ft
A partir de les 12 a les 2000 UTC
Vent 6 kt del Est/Nord-Est
Visibilitat 10 km o més
Núvols disperses a una alçada de 3000 ft

TAF: YGLA 121126Z 1212/1224 08006KT 9999 SCT020 FM122000 06006KT 9999 SCT030

Observacions i pronòstics meteorològics de més de 4000 aeroports (METAR i TAF).

Les estacions disponibles són els punts grocs i vermells al mapa.

Posi el ratolí al punt desitjat per veure el nom de l'estació.

Feu clic per veure les observacions i els pronòstics meteorològics.

Per canviar el mapa: feu clic els botons verds amb una creu de color negre per apropar; al botó verd amb un guió per allunyar la imatge; o en les fletxes verdes per a mapes adjacents.


METAR-TAF: